createdAt,value
2023-04-25T00:03:52.094Z,1.25
2023-04-25T00:08:54.617Z,0.98
2023-04-25T00:13:56.103Z,1.23
2023-04-25T00:18:57.696Z,1.42
2023-04-25T00:23:59.249Z,1.17
2023-04-25T00:29:00.799Z,1.60
2023-04-25T00:34:02.422Z,1.27
2023-04-25T00:39:05.640Z,1.60
2023-04-25T00:44:11.211Z,1.45
2023-04-25T00:49:16.902Z,1.48
2023-04-25T00:54:19.835Z,1.20
2023-04-25T00:59:21.600Z,1.05
2023-04-25T01:04:23.200Z,0.77
2023-04-25T01:09:25.354Z,0.60
2023-04-25T01:14:26.911Z,1.08
2023-04-25T01:19:28.525Z,1.08
2023-04-25T01:24:30.338Z,1.00
2023-04-25T01:29:32.094Z,1.17
2023-04-25T01:34:33.643Z,0.82
2023-04-25T01:39:35.157Z,0.80
2023-04-25T01:44:36.598Z,0.82
2023-04-25T01:49:38.343Z,0.68
2023-04-25T01:54:45.009Z,0.80
2023-04-25T01:59:47.018Z,1.05
2023-04-25T02:04:48.558Z,0.80
2023-04-25T02:09:50.097Z,0.90
2023-04-25T02:14:51.574Z,0.90
2023-04-25T02:19:53.051Z,1.17
2023-04-25T02:24:55.003Z,0.93
2023-04-25T02:29:56.502Z,1.20
2023-04-25T02:34:59.702Z,1.08
2023-04-25T02:40:01.259Z,0.68
2023-04-25T02:45:03.454Z,0.93
2023-04-25T02:50:05.533Z,0.75
2023-04-25T02:55:07.197Z,0.73
2023-04-25T03:00:08.917Z,0.68
2023-04-25T03:05:10.396Z,0.80
2023-04-25T03:10:11.920Z,0.57
2023-04-25T03:15:13.381Z,0.65
2023-04-25T03:20:14.881Z,0.47
2023-04-25T03:25:16.453Z,0.63
2023-04-25T03:30:17.928Z,0.50
2023-04-25T03:35:19.374Z,0.50
2023-04-25T03:40:21.075Z,0.45
2023-04-25T03:45:22.636Z,0.43
2023-04-25T03:50:24.255Z,0.50
2023-04-25T03:55:25.713Z,0.50
2023-04-25T04:00:27.332Z,0.40
2023-04-25T04:05:29.533Z,0.50
2023-04-25T04:10:31.422Z,0.40
2023-04-25T04:15:34.124Z,0.40
2023-04-25T04:20:35.689Z,0.35
2023-04-25T04:25:37.340Z,0.40
2023-04-25T04:30:40.268Z,0.50
2023-04-25T04:35:42.727Z,0.40
2023-04-25T04:40:44.249Z,0.40
2023-04-25T04:45:45.729Z,0.40
2023-04-25T04:50:47.618Z,0.38
2023-04-25T04:55:49.146Z,0.60
2023-04-25T05:00:50.819Z,0.50
2023-04-25T05:05:52.302Z,0.70
2023-04-25T05:10:53.803Z,0.88
2023-04-25T05:15:55.366Z,0.77
2023-04-25T05:20:56.846Z,0.85
2023-04-25T05:25:58.427Z,0.90
2023-04-25T05:30:59.918Z,1.13
2023-04-25T05:36:01.725Z,1.33
2023-04-25T05:41:03.359Z,1.45
2023-04-25T05:46:05.046Z,1.58
2023-04-25T05:51:06.652Z,1.48
2023-04-25T05:56:09.471Z,1.60
2023-04-25T06:01:11.128Z,1.95
2023-04-25T06:06:13.122Z,1.35
2023-04-25T06:11:14.852Z,2.15
2023-04-25T06:16:16.531Z,1.88
2023-04-25T06:21:18.077Z,1.48
2023-04-25T06:26:20.442Z,1.58
2023-04-25T06:31:22.022Z,1.98
2023-04-25T06:36:26.099Z,1.70
2023-04-25T06:41:27.706Z,1.48
2023-04-25T06:46:29.464Z,1.33
2023-04-25T06:51:31.852Z,2.00
2023-04-25T06:56:33.441Z,1.98
2023-04-25T07:01:34.969Z,1.33
2023-04-25T07:06:39.167Z,1.65
2023-04-25T07:11:40.740Z,1.13
2023-04-25T07:16:42.962Z,1.30
2023-04-25T07:21:44.458Z,2.05
2023-04-25T07:26:45.991Z,1.80
2023-04-25T07:31:47.550Z,1.58
2023-04-25T07:36:49.095Z,2.13
2023-04-25T07:41:52.080Z,2.10
2023-04-25T07:46:55.373Z,1.88
2023-04-25T07:51:57.222Z,2.40
2023-04-25T07:56:58.921Z,2.33
2023-04-25T08:02:01.277Z,1.85
2023-04-25T08:07:02.948Z,2.17
2023-04-25T08:12:04.833Z,1.80
2023-04-25T08:17:06.562Z,1.98
2023-04-25T08:22:08.677Z,1.95
2023-04-25T08:27:10.838Z,2.03
2023-04-25T08:32:12.320Z,2.22
2023-04-25T08:37:14.029Z,2.17
2023-04-25T08:42:16.040Z,1.88
2023-04-25T08:47:19.305Z,2.38
2023-04-25T08:52:25.576Z,2.17
2023-04-25T08:57:27.600Z,2.30
2023-04-25T09:02:29.973Z,3.22
2023-04-25T09:07:31.593Z,3.08
2023-04-25T09:12:33.145Z,2.30
2023-04-25T09:17:34.744Z,2.20
2023-04-25T09:22:36.806Z,2.25
2023-04-25T09:27:49.898Z,2.33
2023-04-25T09:32:51.456Z,2.55
2023-04-25T09:37:53.003Z,2.50
2023-04-25T09:42:54.504Z,2.85
2023-04-25T09:48:04.259Z,3.10
2023-04-25T09:53:06.778Z,2.73
2023-04-25T09:58:09.228Z,3.30
2023-04-25T10:03:12.128Z,2.78
2023-04-25T10:08:14.556Z,3.63
2023-04-25T10:13:16.383Z,2.70
2023-04-25T10:18:19.940Z,3.38
2023-04-25T10:23:21.631Z,2.47
2023-04-25T10:28:23.364Z,2.70
2023-04-25T10:33:51.223Z,3.33
2023-04-25T10:38:53.812Z,3.40
2023-04-25T10:44:02.407Z,2.75
2023-04-25T10:49:04.210Z,2.05
2023-04-25T10:54:06.782Z,2.30
2023-04-25T10:59:12.450Z,2.15
2023-04-25T11:04:21.178Z,1.67
2023-04-25T11:09:25.019Z,2.03
2023-04-25T11:14:26.828Z,1.73
2023-04-25T11:19:29.224Z,1.90
2023-04-25T11:24:35.855Z,1.77
2023-04-25T11:29:37.621Z,2.05
2023-04-25T11:34:39.164Z,1.88
2023-04-25T11:39:43.912Z,2.13
2023-04-25T11:44:45.510Z,1.67
2023-04-25T11:49:47.205Z,2.80
2023-04-25T11:54:48.897Z,2.20
2023-04-25T11:59:50.741Z,2.42
2023-04-25T12:04:52.376Z,3.00
2023-04-25T12:09:54.516Z,2.42
2023-04-25T12:14:56.345Z,3.45
2023-04-25T12:19:57.810Z,3.08
2023-04-25T12:24:59.582Z,3.22
2023-04-25T12:30:01.285Z,2.60
2023-04-25T12:35:02.909Z,2.85
2023-04-25T12:40:05.396Z,2.90
2023-04-25T12:45:07.446Z,2.45
2023-04-25T12:50:09.773Z,2.70
2023-04-25T12:55:11.308Z,2.35
2023-04-25T13:00:15.776Z,2.22
2023-04-25T13:05:17.353Z,2.08
2023-04-25T13:10:19.188Z,2.00
2023-04-25T13:15:20.788Z,1.85
2023-04-25T13:20:23.568Z,2.00
2023-04-25T13:25:25.078Z,1.80
2023-04-25T13:30:26.851Z,2.15
2023-04-25T13:35:28.414Z,2.35
2023-04-25T13:40:30.007Z,2.63
2023-04-25T13:45:33.306Z,2.65
2023-04-25T13:50:35.514Z,2.55
2023-04-25T13:55:40.047Z,2.88
2023-04-25T14:00:44.187Z,2.47
2023-04-25T14:05:45.941Z,2.75
2023-04-25T14:10:47.421Z,3.58
2023-04-25T14:15:49.067Z,2.78
2023-04-25T14:20:50.637Z,2.63
2023-04-25T14:25:52.195Z,2.45
2023-04-25T14:30:53.875Z,2.80
2023-04-25T14:35:55.654Z,2.40
2023-04-25T14:40:57.255Z,2.65
2023-04-25T14:45:58.753Z,2.53
2023-04-25T14:51:01.118Z,2.45
2023-04-25T14:56:02.638Z,3.00
2023-04-25T15:01:04.282Z,2.40
2023-04-25T15:06:07.283Z,1.98
2023-04-25T15:11:08.797Z,1.88
2023-04-25T15:16:11.222Z,1.67
2023-04-25T15:21:12.725Z,2.35
2023-04-25T15:26:14.266Z,2.33
2023-04-25T15:31:16.051Z,1.90
2023-04-25T15:36:19.453Z,2.35
2023-04-25T15:41:21.212Z,2.00
2023-04-25T15:46:23.935Z,1.73
2023-04-25T15:51:25.626Z,1.75
2023-04-25T15:56:27.116Z,1.80
2023-04-25T16:01:31.144Z,1.17
2023-04-25T16:06:33.166Z,1.67
2023-04-25T16:11:34.732Z,1.88
2023-04-25T16:16:36.450Z,2.50
2023-04-25T16:21:38.243Z,3.03
2023-04-25T16:26:41.148Z,3.33
2023-04-25T16:31:43.561Z,3.25
2023-04-25T16:36:45.261Z,3.67
2023-04-25T16:41:46.905Z,3.10
2023-04-25T16:46:48.973Z,3.15
2023-04-25T16:51:51.019Z,3.55
2023-04-25T16:56:52.810Z,2.78
2023-04-25T17:01:54.326Z,3.28
2023-04-25T17:06:55.826Z,3.45
2023-04-25T17:11:57.923Z,2.63
2023-04-25T17:16:59.745Z,3.33
2023-04-25T17:22:01.479Z,3.72
2023-04-25T17:27:03.292Z,4.28
2023-04-25T17:32:05.123Z,4.60
2023-04-25T17:37:07.482Z,4.55
2023-04-25T17:42:09.670Z,4.97
2023-04-25T17:47:11.809Z,4.97
2023-04-25T17:52:13.498Z,5.55
2023-04-25T17:57:15.009Z,6.32
2023-04-25T18:02:17.055Z,5.18
2023-04-25T18:07:18.696Z,5.43
2023-04-25T18:12:20.823Z,5.80
2023-04-25T18:17:25.163Z,5.70
2023-04-25T18:22:27.330Z,5.75
2023-04-25T18:27:28.833Z,6.43
2023-04-25T18:32:30.612Z,5.50
2023-04-25T18:37:32.103Z,5.25
2023-04-25T18:42:33.618Z,4.82
2023-04-25T18:47:35.263Z,4.60
2023-04-25T18:52:37.194Z,4.47
2023-04-25T18:57:39.169Z,3.65
2023-04-25T19:02:41.532Z,6.47
2023-04-25T19:07:45.113Z,3.65
2023-04-25T19:12:46.604Z,3.75
2023-04-25T19:17:48.177Z,3.70
2023-04-25T19:22:49.743Z,3.83
2023-04-25T19:27:51.336Z,3.55
2023-04-25T19:32:53.033Z,4.18
2023-04-25T19:37:54.514Z,3.55
2023-04-25T19:42:57.164Z,3.67
2023-04-25T19:47:59.038Z,3.40
2023-04-25T19:53:01.219Z,3.75
2023-04-25T19:58:03.520Z,4.53
2023-04-25T20:03:05.258Z,5.20
2023-04-25T20:08:06.856Z,3.85
2023-04-25T20:13:08.668Z,3.72
2023-04-25T20:18:10.366Z,4.47
2023-04-25T20:23:11.969Z,4.43
2023-04-25T20:28:13.492Z,4.65
2023-04-25T20:33:16.018Z,4.47
2023-04-25T20:38:17.577Z,4.15
2023-04-25T20:43:19.893Z,4.45
2023-04-25T20:48:22.083Z,4.07
2023-04-25T20:53:23.735Z,4.35
2023-04-25T20:58:25.506Z,4.35
2023-04-25T21:03:27.230Z,4.38
2023-04-25T21:08:28.889Z,4.15
2023-04-25T21:13:30.477Z,4.00
2023-04-25T21:18:32.164Z,4.28
2023-04-25T21:23:33.695Z,4.88
2023-04-25T21:28:35.309Z,3.80
2023-04-25T21:33:37.031Z,4.25
2023-04-25T21:38:38.595Z,4.00
2023-04-25T21:43:40.075Z,4.07
2023-04-25T21:48:41.908Z,3.75
2023-04-25T21:53:43.419Z,4.65
2023-04-25T21:58:45.486Z,4.78
2023-04-25T22:03:47.060Z,4.10
2023-04-25T22:08:48.681Z,3.42
2023-04-25T22:13:54.507Z,4.03
2023-04-25T22:18:56.060Z,3.63
2023-04-25T22:23:57.603Z,3.83
2023-04-25T22:28:59.216Z,4.38
2023-04-25T22:34:01.080Z,4.35
2023-04-25T22:39:03.107Z,3.90
2023-04-25T22:44:04.651Z,4.38
2023-04-25T22:49:06.322Z,4.57
2023-04-25T22:54:07.782Z,4.75
2023-04-25T22:59:11.592Z,4.15
2023-04-25T23:04:13.352Z,4.93
2023-04-25T23:09:15.919Z,4.82
2023-04-25T23:14:17.396Z,3.88
2023-04-25T23:19:18.875Z,4.40
2023-04-25T23:24:20.756Z,4.32
2023-04-25T23:29:22.281Z,4.35
2023-04-25T23:34:23.740Z,4.50
2023-04-25T23:39:25.998Z,5.00
2023-04-25T23:44:27.552Z,4.38
2023-04-25T23:49:29.484Z,4.53
2023-04-25T23:54:30.954Z,3.47
2023-04-25T23:59:32.456Z,3.08
